sensor_id;sensor_type;location;lat;lon;timestamp;P1;durP1;ratioP1;P2;durP2;ratioP2
74644;SDS011;63163;55.630;37.594;2023-12-20T00:00:31;2.900000;;;2.500000;;
74644;SDS011;63163;55.630;37.594;2023-12-20T00:01:32;3.800000;;;2.300000;;
74644;SDS011;63163;55.630;37.594;2023-12-20T00:02:33;2.800000;;;2.500000;;
74644;SDS011;63163;55.630;37.594;2023-12-20T00:03:33;2.900000;;;2.600000;;
74644;SDS011;63163;55.630;37.594;2023-12-20T00:04:34;2.600000;;;2.200000;;
74644;SDS011;63163;55.630;37.594;2023-12-20T00:05:34;3.000000;;;2.700000;;
74644;SDS011;63163;55.630;37.594;2023-12-20T00:06:36;3.000000;;;2.700000;;
74644;SDS011;63163;55.630;37.594;2023-12-20T00:07:37;2.900000;;;2.200000;;
74644;SDS011;63163;55.630;37.594;2023-12-20T00:08:37;3.200000;;;2.700000;;
74644;SDS011;63163;55.630;37.594;2023-12-20T00:09:38;3.200000;;;2.600000;;
74644;SDS011;63163;55.630;37.594;2023-12-20T00:10:38;2.700000;;;2.400000;;
74644;SDS011;63163;55.630;37.594;2023-12-20T00:11:39;3.500000;;;2.500000;;
74644;SDS011;63163;55.630;37.594;2023-12-20T00:12:42;3.800000;;;2.700000;;
74644;SDS011;63163;55.630;37.594;2023-12-20T00:13:42;3.400000;;;2.900000;;
74644;SDS011;63163;55.630;37.594;2023-12-20T00:14:43;2.900000;;;2.600000;;
74644;SDS011;63163;55.630;37.594;2023-12-20T00:15:43;4.100000;;;2.900000;;
74644;SDS011;63163;55.630;37.594;2023-12-20T00:16:44;3.100000;;;2.700000;;
74644;SDS011;63163;55.630;37.594;2023-12-20T00:17:45;3.500000;;;2.700000;;
74644;SDS011;63163;55.630;37.594;2023-12-20T00:18:46;3.000000;;;2.700000;;
74644;SDS011;63163;55.630;37.594;2023-12-20T00:19:46;3.700000;;;2.700000;;
74644;SDS011;63163;55.630;37.594;2023-12-20T00:20:47;3.100000;;;2.500000;;
74644;SDS011;63163;55.630;37.594;2023-12-20T00:21:47;3.300000;;;3.000000;;
74644;SDS011;63163;55.630;37.594;2023-12-20T00:22:48;3.400000;;;2.800000;;
74644;SDS011;63163;55.630;37.594;2023-12-20T00:23:48;4.600000;;;2.700000;;
74644;SDS011;63163;55.630;37.594;2023-12-20T00:24:49;3.200000;;;2.500000;;
74644;SDS011;63163;55.630;37.594;2023-12-20T00:25:50;3.300000;;;2.700000;;
74644;SDS011;63163;55.630;37.594;2023-12-20T00:26:50;3.600000;;;2.600000;;
74644;SDS011;63163;55.630;37.594;2023-12-20T00:27:51;3.900000;;;2.900000;;
74644;SDS011;63163;55.630;37.594;2023-12-20T00:28:52;3.500000;;;2.800000;;
74644;SDS011;63163;55.630;37.594;2023-12-20T00:29:52;3.200000;;;2.700000;;
74644;SDS011;63163;55.630;37.594;2023-12-20T00:30:53;3.200000;;;2.900000;;
74644;SDS011;63163;55.630;37.594;2023-12-20T00:31:54;3.500000;;;2.700000;;
74644;SDS011;63163;55.630;37.594;2023-12-20T00:32:55;3.000000;;;2.600000;;
74644;SDS011;63163;55.630;37.594;2023-12-20T00:33:55;4.000000;;;2.900000;;
74644;SDS011;63163;55.630;37.594;2023-12-20T00:34:56;2.900000;;;2.600000;;
74644;SDS011;63163;55.630;37.594;2023-12-20T00:35:57;3.400000;;;2.900000;;
74644;SDS011;63163;55.630;37.594;2023-12-20T00:36:57;2.900000;;;2.600000;;
74644;SDS011;63163;55.630;37.594;2023-12-20T00:37:58;4.500000;;;2.700000;;
74644;SDS011;63163;55.630;37.594;2023-12-20T00:38:59;3.200000;;;2.500000;;
74644;SDS011;63163;55.630;37.594;2023-12-20T00:40:00;2.900000;;;2.400000;;
74644;SDS011;63163;55.630;37.594;2023-12-20T00:41:01;4.000000;;;3.000000;;
74644;SDS011;63163;55.630;37.594;2023-12-20T00:42:01;4.200000;;;2.900000;;
74644;SDS011;63163;55.630;37.594;2023-12-20T00:43:02;3.400000;;;3.100000;;
74644;SDS011;63163;55.630;37.594;2023-12-20T00:44:03;4.400000;;;3.100000;;
74644;SDS011;63163;55.630;37.594;2023-12-20T00:45:04;4.000000;;;2.700000;;
74644;SDS011;63163;55.630;37.594;2023-12-20T00:46:05;4.500000;;;2.500000;;
74644;SDS011;63163;55.630;37.594;2023-12-20T00:47:06;4.000000;;;3.000000;;
74644;SDS011;63163;55.630;37.594;2023-12-20T00:48:07;3.700000;;;2.600000;;
74644;SDS011;63163;55.630;37.594;2023-12-20T00:49:07;3.400000;;;2.600000;;
74644;SDS011;63163;55.630;37.594;2023-12-20T00:50:08;2.900000;;;2.600000;;
74644;SDS011;63163;55.630;37.594;2023-12-20T00:51:09;5.100000;;;2.900000;;
74644;SDS011;63163;55.630;37.594;2023-12-20T00:52:09;3.600000;;;2.700000;;
74644;SDS011;63163;55.630;37.594;2023-12-20T00:53:10;3.900000;;;2.800000;;
74644;SDS011;63163;55.630;37.594;2023-12-20T00:54:11;3.300000;;;2.700000;;
74644;SDS011;63163;55.630;37.594;2023-12-20T00:55:11;3.600000;;;3.100000;;
74644;SDS011;63163;55.630;37.594;2023-12-20T00:56:12;3.100000;;;2.800000;;
74644;SDS011;63163;55.630;37.594;2023-12-20T00:57:13;3.300000;;;3.000000;;
74644;SDS011;63163;55.630;37.594;2023-12-20T00:58:13;4.000000;;;3.400000;;
74644;SDS011;63163;55.630;37.594;2023-12-20T00:59:16;4.300000;;;3.000000;;
74644;SDS011;63163;55.630;37.594;2023-12-20T01:00:17;2.900000;;;2.600000;;
74644;SDS011;63163;55.630;37.594;2023-12-20T01:01:17;3.700000;;;2.600000;;
74644;SDS011;63163;55.630;37.594;2023-12-20T01:02:18;3.200000;;;2.900000;;
74644;SDS011;63163;55.630;37.594;2023-12-20T01:03:19;5.000000;;;2.800000;;
74644;SDS011;63163;55.630;37.594;2023-12-20T01:04:20;3.500000;;;3.200000;;
74644;SDS011;63163;55.630;37.594;2023-12-20T01:05:20;3.300000;;;3.000000;;
74644;SDS011;63163;55.630;37.594;2023-12-20T01:06:24;3.800000;;;2.900000;;
74644;SDS011;63163;55.630;37.594;2023-12-20T01:07:24;3.400000;;;3.100000;;
74644;SDS011;63163;55.630;37.594;2023-12-20T01:08:25;3.600000;;;3.300000;;
74644;SDS011;63163;55.630;37.594;2023-12-20T01:09:26;3.200000;;;2.900000;;
74644;SDS011;63163;55.630;37.594;2023-12-20T01:10:27;3.700000;;;3.000000;;
74644;SDS011;63163;55.630;37.594;2023-12-20T01:11:29;3.300000;;;2.900000;;
74644;SDS011;63163;55.630;37.594;2023-12-20T01:12:30;3.400000;;;3.100000;;
74644;SDS011;63163;55.630;37.594;2023-12-20T01:13:31;3.300000;;;2.700000;;
74644;SDS011;63163;55.630;37.594;2023-12-20T01:14:31;4.200000;;;2.600000;;
74644;SDS011;63163;55.630;37.594;2023-12-20T01:15:32;3.200000;;;2.900000;;
74644;SDS011;63163;55.630;37.594;2023-12-20T01:16:32;3.300000;;;2.400000;;
74644;SDS011;63163;55.630;37.594;2023-12-20T01:17:33;3.200000;;;2.800000;;
74644;SDS011;63163;55.630;37.594;2023-12-20T01:18:33;3.200000;;;2.900000;;
74644;SDS011;63163;55.630;37.594;2023-12-20T01:19:34;3.200000;;;2.700000;;
74644;SDS011;63163;55.630;37.594;2023-12-20T01:20:35;3.400000;;;2.900000;;
74644;SDS011;63163;55.630;37.594;2023-12-20T01:21:35;3.500000;;;3.000000;;
74644;SDS011;63163;55.630;37.594;2023-12-20T01:22:36;4.400000;;;3.200000;;
74644;SDS011;63163;55.630;37.594;2023-12-20T01:23:36;4.500000;;;4.000000;;
74644;SDS011;63163;55.630;37.594;2023-12-20T01:24:37;3.400000;;;2.800000;;
74644;SDS011;63163;55.630;37.594;2023-12-20T01:25:37;3.300000;;;3.000000;;
74644;SDS011;63163;55.630;37.594;2023-12-20T01:26:38;3.700000;;;3.300000;;
74644;SDS011;63163;55.630;37.594;2023-12-20T01:27:39;3.400000;;;2.900000;;
74644;SDS011;63163;55.630;37.594;2023-12-20T01:28:39;3.400000;;;3.100000;;
74644;SDS011;63163;55.630;37.594;2023-12-20T01:29:40;3.200000;;;2.900000;;
74644;SDS011;63163;55.630;37.594;2023-12-20T01:30:41;3.800000;;;3.400000;;
74644;SDS011;63163;55.630;37.594;2023-12-20T01:31:41;4.200000;;;2.800000;;
74644;SDS011;63163;55.630;37.594;2023-12-20T01:32:42;3.900000;;;3.200000;;
74644;SDS011;63163;55.630;37.594;2023-12-20T01:33:42;3.500000;;;2.700000;;
74644;SDS011;63163;55.630;37.594;2023-12-20T01:34:43;3.300000;;;2.500000;;
74644;SDS011;63163;55.630;37.594;2023-12-20T01:35:44;3.500000;;;2.700000;;
74644;SDS011;63163;55.630;37.594;2023-12-20T01:36:44;3.800000;;;2.800000;;
74644;SDS011;63163;55.630;37.594;2023-12-20T01:37:45;3.900000;;;3.500000;;
74644;SDS011;63163;55.630;37.594;2023-12-20T01:38:45;3.700000;;;3.000000;;
74644;SDS011;63163;55.630;37.594;2023-12-20T01:39:46;2.800000;;;2.300000;;
74644;SDS011;63163;55.630;37.594;2023-12-20T01:40:47;3.300000;;;2.800000;;
74644;SDS011;63163;55.630;37.594;2023-12-20T01:41:47;2.900000;;;2.400000;;
74644;SDS011;63163;55.630;37.594;2023-12-20T01:42:57;2.600000;;;2.400000;;
74644;SDS011;63163;55.630;37.594;2023-12-20T01:43:57;3.100000;;;2.600000;;
74644;SDS011;63163;55.630;37.594;2023-12-20T01:44:58;4.200000;;;2.900000;;
74644;SDS011;63163;55.630;37.594;2023-12-20T01:45:59;3.300000;;;3.000000;;
74644;SDS011;63163;55.630;37.594;2023-12-20T01:47:00;3.100000;;;2.700000;;
74644;SDS011;63163;55.630;37.594;2023-12-20T01:48:00;2.400000;;;2.200000;;
74644;SDS011;63163;55.630;37.594;2023-12-20T01:49:03;3.000000;;;2.500000;;
74644;SDS011;63163;55.630;37.594;2023-12-20T01:50:04;3.200000;;;2.800000;;
74644;SDS011;63163;55.630;37.594;2023-12-20T01:51:05;3.500000;;;2.400000;;
74644;SDS011;63163;55.630;37.594;2023-12-20T01:52:06;2.700000;;;2.300000;;
74644;SDS011;63163;55.630;37.594;2023-12-20T01:53:07;4.100000;;;3.200000;;
74644;SDS011;63163;55.630;37.594;2023-12-20T01:54:08;3.600000;;;2.600000;;
74644;SDS011;63163;55.630;37.594;2023-12-20T01:55:09;3.700000;;;2.400000;;
74644;SDS011;63163;55.630;37.594;2023-12-20T01:56:13;3.200000;;;2.400000;;
74644;SDS011;63163;55.630;37.594;2023-12-20T01:57:13;3.700000;;;2.300000;;
74644;SDS011;63163;55.630;37.594;2023-12-20T01:58:14;3.700000;;;2.500000;;
74644;SDS011;63163;55.630;37.594;2023-12-20T01:59:15;3.800000;;;2.100000;;
74644;SDS011;63163;55.630;37.594;2023-12-20T02:00:17;2.400000;;;2.000000;;
74644;SDS011;63163;55.630;37.594;2023-12-20T02:01:18;3.800000;;;2.100000;;
74644;SDS011;63163;55.630;37.594;2023-12-20T02:02:19;3.700000;;;2.400000;;
74644;SDS011;63163;55.630;37.594;2023-12-20T02:03:20;3.000000;;;2.000000;;
74644;SDS011;63163;55.630;37.594;2023-12-20T02:04:21;5.400000;;;5.000000;;
74644;SDS011;63163;55.630;37.594;2023-12-20T02:05:22;2.900000;;;2.600000;;
74644;SDS011;63163;55.630;37.594;2023-12-20T02:06:23;2.500000;;;1.800000;;
74644;SDS011;63163;55.630;37.594;2023-12-20T02:07:23;3.200000;;;1.900000;;
74644;SDS011;63163;55.630;37.594;2023-12-20T02:08:24;3.900000;;;1.900000;;
74644;SDS011;63163;55.630;37.594;2023-12-20T02:09:25;3.600000;;;2.100000;;
74644;SDS011;63163;55.630;37.594;2023-12-20T02:10:26;2.000000;;;1.800000;;
74644;SDS011;63163;55.630;37.594;2023-12-20T02:11:26;3.000000;;;2.800000;;
74644;SDS011;63163;55.630;37.594;2023-12-20T02:12:28;3.600000;;;2.000000;;
74644;SDS011;63163;55.630;37.594;2023-12-20T02:13:28;2.400000;;;1.900000;;
74644;SDS011;63163;55.630;37.594;2023-12-20T02:14:29;2.800000;;;2.300000;;
74644;SDS011;63163;55.630;37.594;2023-12-20T02:15:29;2.600000;;;1.900000;;
74644;SDS011;63163;55.630;37.594;2023-12-20T02:16:30;2.200000;;;2.000000;;
74644;SDS011;63163;55.630;37.594;2023-12-20T02:17:31;2.500000;;;1.800000;;
74644;SDS011;63163;55.630;37.594;2023-12-20T02:18:32;2.600000;;;2.200000;;
74644;SDS011;63163;55.630;37.594;2023-12-20T02:19:33;2.800000;;;2.100000;;
74644;SDS011;63163;55.630;37.594;2023-12-20T02:20:33;3.200000;;;2.100000;;
74644;SDS011;63163;55.630;37.594;2023-12-20T02:21:34;2.300000;;;1.900000;;
74644;SDS011;63163;55.630;37.594;2023-12-20T02:22:35;2.700000;;;2.100000;;
74644;SDS011;63163;55.630;37.594;2023-12-20T02:23:36;3.500000;;;2.500000;;
74644;SDS011;63163;55.630;37.594;2023-12-20T02:24:37;2.700000;;;1.900000;;
74644;SDS011;63163;55.630;37.594;2023-12-20T02:25:37;2.800000;;;2.100000;;
74644;SDS011;63163;55.630;37.594;2023-12-20T02:26:38;3.300000;;;2.200000;;
74644;SDS011;63163;55.630;37.594;2023-12-20T02:27:38;3.500000;;;2.000000;;
74644;SDS011;63163;55.630;37.594;2023-12-20T02:28:39;3.300000;;;1.900000;;
74644;SDS011;63163;55.630;37.594;2023-12-20T02:29:40;3.500000;;;1.900000;;
74644;SDS011;63163;55.630;37.594;2023-12-20T02:30:41;2.700000;;;2.100000;;
74644;SDS011;63163;55.630;37.594;2023-12-20T02:31:42;2.600000;;;2.100000;;
74644;SDS011;63163;55.630;37.594;2023-12-20T02:32:42;2.800000;;;2.100000;;
74644;SDS011;63163;55.630;37.594;2023-12-20T02:33:43;2.600000;;;2.200000;;
74644;SDS011;63163;55.630;37.594;2023-12-20T02:34:43;3.300000;;;1.900000;;
74644;SDS011;63163;55.630;37.594;2023-12-20T02:35:44;3.000000;;;2.000000;;
74644;SDS011;63163;55.630;37.594;2023-12-20T02:36:45;3.300000;;;2.300000;;
74644;SDS011;63163;55.630;37.594;2023-12-20T02:37:45;3.000000;;;2.000000;;
74644;SDS011;63163;55.630;37.594;2023-12-20T02:38:46;2.900000;;;2.600000;;
74644;SDS011;63163;55.630;37.594;2023-12-20T02:39:47;2.800000;;;2.000000;;
74644;SDS011;63163;55.630;37.594;2023-12-20T02:40:47;2.700000;;;2.000000;;
74644;SDS011;63163;55.630;37.594;2023-12-20T02:41:48;3.100000;;;2.200000;;
74644;SDS011;63163;55.630;37.594;2023-12-20T02:42:49;4.100000;;;2.300000;;
74644;SDS011;63163;55.630;37.594;2023-12-20T02:43:49;3.200000;;;2.500000;;
74644;SDS011;63163;55.630;37.594;2023-12-20T02:44:50;2.600000;;;2.100000;;
74644;SDS011;63163;55.630;37.594;2023-12-20T02:45:50;3.400000;;;2.500000;;
74644;SDS011;63163;55.630;37.594;2023-12-20T02:46:51;3.500000;;;2.000000;;
74644;SDS011;63163;55.630;37.594;2023-12-20T02:47:51;2.900000;;;2.400000;;
74644;SDS011;63163;55.630;37.594;2023-12-20T02:48:52;3.300000;;;2.400000;;
74644;SDS011;63163;55.630;37.594;2023-12-20T02:49:53;3.100000;;;2.500000;;
74644;SDS011;63163;55.630;37.594;2023-12-20T02:50:54;2.400000;;;2.100000;;
74644;SDS011;63163;55.630;37.594;2023-12-20T02:51:54;4.300000;;;2.800000;;
74644;SDS011;63163;55.630;37.594;2023-12-20T02:52:55;3.500000;;;2.300000;;
74644;SDS011;63163;55.630;37.594;2023-12-20T02:53:56;3.100000;;;2.700000;;
74644;SDS011;63163;55.630;37.594;2023-12-20T02:54:56;3.800000;;;2.500000;;
74644;SDS011;63163;55.630;37.594;2023-12-20T02:55:57;2.900000;;;2.600000;;
74644;SDS011;63163;55.630;37.594;2023-12-20T02:56:57;4.600000;;;2.500000;;
74644;SDS011;63163;55.630;37.594;2023-12-20T02:57:58;4.400000;;;2.900000;;
74644;SDS011;63163;55.630;37.594;2023-12-20T02:58:59;4.000000;;;2.700000;;
74644;SDS011;63163;55.630;37.594;2023-12-20T02:59:59;3.700000;;;2.300000;;
74644;SDS011;63163;55.630;37.594;2023-12-20T03:01:00;3.100000;;;2.800000;;
74644;SDS011;63163;55.630;37.594;2023-12-20T03:02:01;4.900000;;;4.500000;;
74644;SDS011;63163;55.630;37.594;2023-12-20T03:03:01;3.100000;;;2.400000;;
74644;SDS011;63163;55.630;37.594;2023-12-20T03:04:02;3.600000;;;2.800000;;
74644;SDS011;63163;55.630;37.594;2023-12-20T03:05:03;3.300000;;;2.700000;;
74644;SDS011;63163;55.630;37.594;2023-12-20T03:06:04;2.800000;;;2.500000;;
74644;SDS011;63163;55.630;37.594;2023-12-20T03:07:04;3.600000;;;3.000000;;
74644;SDS011;63163;55.630;37.594;2023-12-20T03:08:05;2.900000;;;2.400000;;
74644;SDS011;63163;55.630;37.594;2023-12-20T03:09:06;4.000000;;;3.200000;;
74644;SDS011;63163;55.630;37.594;2023-12-20T03:10:06;3.600000;;;3.300000;;
74644;SDS011;63163;55.630;37.594;2023-12-20T03:11:08;3.600000;;;2.900000;;
74644;SDS011;63163;55.630;37.594;2023-12-20T03:12:09;4.600000;;;3.800000;;
74644;SDS011;63163;55.630;37.594;2023-12-20T03:13:09;2.800000;;;2.500000;;
74644;SDS011;63163;55.630;37.594;2023-12-20T03:14:10;4.400000;;;3.300000;;
74644;SDS011;63163;55.630;37.594;2023-12-20T03:15:11;3.900000;;;2.700000;;
74644;SDS011;63163;55.630;37.594;2023-12-20T03:16:12;3.500000;;;2.600000;;
74644;SDS011;63163;55.630;37.594;2023-12-20T03:17:13;3.400000;;;2.700000;;
74644;SDS011;63163;55.630;37.594;2023-12-20T03:18:14;4.200000;;;3.000000;;
74644;SDS011;63163;55.630;37.594;2023-12-20T03:19:14;3.100000;;;2.700000;;
74644;SDS011;63163;55.630;37.594;2023-12-20T03:20:15;3.000000;;;2.400000;;
74644;SDS011;63163;55.630;37.594;2023-12-20T03:21:16;4.400000;;;2.500000;;
74644;SDS011;63163;55.630;37.594;2023-12-20T03:22:16;3.500000;;;3.000000;;
74644;SDS011;63163;55.630;37.594;2023-12-20T03:23:17;2.900000;;;2.600000;;
74644;SDS011;63163;55.630;37.594;2023-12-20T03:24:17;4.500000;;;2.600000;;
74644;SDS011;63163;55.630;37.594;2023-12-20T03:25:18;3.000000;;;2.500000;;
74644;SDS011;63163;55.630;37.594;2023-12-20T03:26:18;3.000000;;;2.500000;;
74644;SDS011;63163;55.630;37.594;2023-12-20T03:27:19;3.500000;;;2.300000;;
74644;SDS011;63163;55.630;37.594;2023-12-20T03:28:20;3.300000;;;2.600000;;
74644;SDS011;63163;55.630;37.594;2023-12-20T03:29:20;4.000000;;;2.500000;;
74644;SDS011;63163;55.630;37.594;2023-12-20T03:30:21;3.900000;;;3.000000;;
74644;SDS011;63163;55.630;37.594;2023-12-20T03:31:22;3.400000;;;2.800000;;
74644;SDS011;63163;55.630;37.594;2023-12-20T03:32:22;3.300000;;;2.600000;;
74644;SDS011;63163;55.630;37.594;2023-12-20T03:33:23;4.000000;;;2.600000;;
74644;SDS011;63163;55.630;37.594;2023-12-20T03:34:23;3.900000;;;2.800000;;
74644;SDS011;63163;55.630;37.594;2023-12-20T03:35:24;3.300000;;;3.000000;;
74644;SDS011;63163;55.630;37.594;2023-12-20T03:36:24;4.000000;;;3.100000;;
74644;SDS011;63163;55.630;37.594;2023-12-20T03:37:25;3.300000;;;2.800000;;
74644;SDS011;63163;55.630;37.594;2023-12-20T03:38:26;3.400000;;;2.800000;;
74644;SDS011;63163;55.630;37.594;2023-12-20T03:39:26;5.400000;;;5.000000;;
74644;SDS011;63163;55.630;37.594;2023-12-20T03:40:27;4.200000;;;2.700000;;
74644;SDS011;63163;55.630;37.594;2023-12-20T03:41:27;3.900000;;;3.000000;;
74644;SDS011;63163;55.630;37.594;2023-12-20T03:42:28;3.900000;;;2.900000;;
74644;SDS011;63163;55.630;37.594;2023-12-20T03:43:28;4.800000;;;3.100000;;
74644;SDS011;63163;55.630;37.594;2023-12-20T03:44:29;4.800000;;;3.200000;;
74644;SDS011;63163;55.630;37.594;2023-12-20T03:45:30;3.400000;;;3.000000;;
74644;SDS011;63163;55.630;37.594;2023-12-20T03:46:30;5.100000;;;3.000000;;
74644;SDS011;63163;55.630;37.594;2023-12-20T03:47:31;4.000000;;;3.300000;;
74644;SDS011;63163;55.630;37.594;2023-12-20T03:48:31;4.200000;;;3.000000;;
74644;SDS011;63163;55.630;37.594;2023-12-20T03:49:32;4.400000;;;3.200000;;
74644;SDS011;63163;55.630;37.594;2023-12-20T03:50:33;3.500000;;;3.200000;;
74644;SDS011;63163;55.630;37.594;2023-12-20T03:51:34;4.700000;;;3.100000;;
74644;SDS011;63163;55.630;37.594;2023-12-20T03:52:34;4.000000;;;3.600000;;
74644;SDS011;63163;55.630;37.594;2023-12-20T03:53:35;4.800000;;;3.500000;;
74644;SDS011;63163;55.630;37.594;2023-12-20T03:54:35;3.300000;;;2.900000;;
74644;SDS011;63163;55.630;37.594;2023-12-20T03:55:36;3.900000;;;3.400000;;
74644;SDS011;63163;55.630;37.594;2023-12-20T03:56:36;3.300000;;;3.000000;;
74644;SDS011;63163;55.630;37.594;2023-12-20T03:57:37;4.300000;;;3.500000;;
74644;SDS011;63163;55.630;37.594;2023-12-20T03:58:37;5.200000;;;3.500000;;
74644;SDS011;63163;55.630;37.594;2023-12-20T03:59:38;3.500000;;;3.200000;;
74644;SDS011;63163;55.630;37.594;2023-12-20T04:00:39;3.800000;;;3.300000;;
74644;SDS011;63163;55.630;37.594;2023-12-20T04:01:42;4.300000;;;3.300000;;
74644;SDS011;63163;55.630;37.594;2023-12-20T04:02:43;4.700000;;;4.000000;;
74644;SDS011;63163;55.630;37.594;2023-12-20T04:03:44;3.800000;;;3.000000;;
74644;SDS011;63163;55.630;37.594;2023-12-20T04:04:44;4.000000;;;3.200000;;
74644;SDS011;63163;55.630;37.594;2023-12-20T04:05:45;4.300000;;;3.500000;;
74644;SDS011;63163;55.630;37.594;2023-12-20T04:06:45;5.200000;;;3.500000;;
74644;SDS011;63163;55.630;37.594;2023-12-20T04:07:46;5.500000;;;3.400000;;
74644;SDS011;63163;55.630;37.594;2023-12-20T04:08:47;4.900000;;;3.900000;;
74644;SDS011;63163;55.630;37.594;2023-12-20T04:09:47;5.100000;;;3.400000;;
74644;SDS011;63163;55.630;37.594;2023-12-20T04:10:48;4.500000;;;3.700000;;
74644;SDS011;63163;55.630;37.594;2023-12-20T04:11:48;4.300000;;;3.400000;;
74644;SDS011;63163;55.630;37.594;2023-12-20T04:12:49;4.200000;;;3.100000;;
74644;SDS011;63163;55.630;37.594;2023-12-20T04:13:49;5.200000;;;4.300000;;
74644;SDS011;63163;55.630;37.594;2023-12-20T04:14:50;4.700000;;;3.700000;;
74644;SDS011;63163;55.630;37.594;2023-12-20T04:15:50;4.600000;;;3.700000;;
74644;SDS011;63163;55.630;37.594;2023-12-20T04:16:52;4.100000;;;3.400000;;
74644;SDS011;63163;55.630;37.594;2023-12-20T04:17:52;4.700000;;;3.500000;;
74644;SDS011;63163;55.630;37.594;2023-12-20T04:18:53;5.000000;;;3.800000;;
74644;SDS011;63163;55.630;37.594;2023-12-20T04:19:53;5.800000;;;3.900000;;
74644;SDS011;63163;55.630;37.594;2023-12-20T04:20:54;4.200000;;;3.800000;;
74644;SDS011;63163;55.630;37.594;2023-12-20T04:21:54;4.200000;;;3.700000;;
74644;SDS011;63163;55.630;37.594;2023-12-20T04:22:55;4.600000;;;3.700000;;
74644;SDS011;63163;55.630;37.594;2023-12-20T04:23:55;4.900000;;;4.200000;;
74644;SDS011;63163;55.630;37.594;2023-12-20T04:24:56;4.700000;;;3.500000;;
74644;SDS011;63163;55.630;37.594;2023-12-20T04:25:56;4.900000;;;4.200000;;
74644;SDS011;63163;55.630;37.594;2023-12-20T04:26:57;4.700000;;;3.600000;;
74644;SDS011;63163;55.630;37.594;2023-12-20T04:27:57;6.100000;;;3.300000;;
74644;SDS011;63163;55.630;37.594;2023-12-20T04:28:58;5.600000;;;4.000000;;
74644;SDS011;63163;55.630;37.594;2023-12-20T04:29:58;4.400000;;;3.500000;;
74644;SDS011;63163;55.630;37.594;2023-12-20T04:30:59;4.700000;;;3.900000;;
74644;SDS011;63163;55.630;37.594;2023-12-20T04:31:59;5.300000;;;3.900000;;
74644;SDS011;63163;55.630;37.594;2023-12-20T04:33:00;4.300000;;;3.800000;;
74644;SDS011;63163;55.630;37.594;2023-12-20T04:34:01;4.200000;;;3.700000;;
74644;SDS011;63163;55.630;37.594;2023-12-20T04:35:01;5.200000;;;3.400000;;
74644;SDS011;63163;55.630;37.594;2023-12-20T04:36:02;4.800000;;;4.300000;;
74644;SDS011;63163;55.630;37.594;2023-12-20T04:37:02;4.600000;;;3.300000;;
74644;SDS011;63163;55.630;37.594;2023-12-20T04:38:03;4.600000;;;3.400000;;
74644;SDS011;63163;55.630;37.594;2023-12-20T04:39:04;4.300000;;;3.700000;;
74644;SDS011;63163;55.630;37.594;2023-12-20T04:40:05;3.500000;;;2.900000;;
74644;SDS011;63163;55.630;37.594;2023-12-20T04:41:06;5.900000;;;4.100000;;
74644;SDS011;63163;55.630;37.594;2023-12-20T04:42:07;5.600000;;;3.800000;;
74644;SDS011;63163;55.630;37.594;2023-12-20T04:43:07;4.600000;;;3.500000;;
74644;SDS011;63163;55.630;37.594;2023-12-20T04:44:09;4.800000;;;4.300000;;
74644;SDS011;63163;55.630;37.594;2023-12-20T04:45:09;4.200000;;;3.800000;;
74644;SDS011;63163;55.630;37.594;2023-12-20T04:46:12;5.200000;;;3.600000;;
74644;SDS011;63163;55.630;37.594;2023-12-20T04:47:13;4.200000;;;3.100000;;
74644;SDS011;63163;55.630;37.594;2023-12-20T04:48:14;3.900000;;;3.400000;;
74644;SDS011;63163;55.630;37.594;2023-12-20T04:49:14;4.100000;;;3.400000;;
74644;SDS011;63163;55.630;37.594;2023-12-20T04:50:14;3.900000;;;3.100000;;
74644;SDS011;63163;55.630;37.594;2023-12-20T04:51:15;4.600000;;;3.500000;;
74644;SDS011;63163;55.630;37.594;2023-12-20T04:52:16;4.400000;;;3.300000;;
74644;SDS011;63163;55.630;37.594;2023-12-20T04:53:16;3.600000;;;2.700000;;
74644;SDS011;63163;55.630;37.594;2023-12-20T04:54:17;4.500000;;;2.900000;;
74644;SDS011;63163;55.630;37.594;2023-12-20T04:55:17;3.500000;;;2.700000;;
74644;SDS011;63163;55.630;37.594;2023-12-20T04:56:18;3.800000;;;2.600000;;
74644;SDS011;63163;55.630;37.594;2023-12-20T04:57:18;4.200000;;;2.500000;;
74644;SDS011;63163;55.630;37.594;2023-12-20T04:58:19;3.400000;;;2.200000;;
74644;SDS011;63163;55.630;37.594;2023-12-20T04:59:19;2.800000;;;2.200000;;
74644;SDS011;63163;55.630;37.594;2023-12-20T05:00:20;3.200000;;;2.200000;;
74644;SDS011;63163;55.630;37.594;2023-12-20T05:01:20;3.400000;;;2.200000;;
74644;SDS011;63163;55.630;37.594;2023-12-20T05:02:21;3.500000;;;2.600000;;
74644;SDS011;63163;55.630;37.594;2023-12-20T05:03:22;4.700000;;;2.600000;;
74644;SDS011;63163;55.630;37.594;2023-12-20T05:04:22;2.700000;;;2.100000;;
74644;SDS011;63163;55.630;37.594;2023-12-20T05:05:23;3.000000;;;2.600000;;
74644;SDS011;63163;55.630;37.594;2023-12-20T05:06:23;3.500000;;;2.200000;;
74644;SDS011;63163;55.630;37.594;2023-12-20T05:07:25;3.500000;;;2.800000;;
74644;SDS011;63163;55.630;37.594;2023-12-20T05:08:25;4.500000;;;2.900000;;
74644;SDS011;63163;55.630;37.594;2023-12-20T05:09:26;3.000000;;;2.400000;;
74644;SDS011;63163;55.630;37.594;2023-12-20T05:10:26;4.300000;;;2.900000;;
74644;SDS011;63163;55.630;37.594;2023-12-20T05:11:28;3.800000;;;2.700000;;
74644;SDS011;63163;55.630;37.594;2023-12-20T05:12:28;4.000000;;;2.600000;;
74644;SDS011;63163;55.630;37.594;2023-12-20T05:13:29;5.800000;;;3.000000;;
74644;SDS011;63163;55.630;37.594;2023-12-20T05:14:29;3.700000;;;3.100000;;
74644;SDS011;63163;55.630;37.594;2023-12-20T05:15:30;3.700000;;;3.300000;;
74644;SDS011;63163;55.630;37.594;2023-12-20T05:16:31;5.900000;;;3.600000;;
74644;SDS011;63163;55.630;37.594;2023-12-20T05:17:32;4.000000;;;3.400000;;
74644;SDS011;63163;55.630;37.594;2023-12-20T05:18:32;5.200000;;;3.200000;;
74644;SDS011;63163;55.630;37.594;2023-12-20T05:19:33;4.600000;;;3.100000;;
74644;SDS011;63163;55.630;37.594;2023-12-20T05:20:35;4.400000;;;3.400000;;
74644;SDS011;63163;55.630;37.594;2023-12-20T05:21:36;6.600000;;;4.600000;;